sensor_id;sensor_type;location;lat;lon;timestamp;P1;durP1;ratioP1;P2;durP2;ratioP2
78895;SDS011;68284;59.124;37.910;2023-12-28T00:01:48;25.55;;;13.25;;
78895;SDS011;68284;59.124;37.910;2023-12-28T00:04:16;29.67;;;16.05;;
78895;SDS011;68284;59.124;37.910;2023-12-28T00:06:42;38.72;;;13.07;;
78895;SDS011;68284;59.124;37.910;2023-12-28T00:09:09;23.58;;;12.38;;
78895;SDS011;68284;59.124;37.910;2023-12-28T00:11:35;28.35;;;12.35;;
78895;SDS011;68284;59.124;37.910;2023-12-28T00:14:02;32.50;;;14.98;;
78895;SDS011;68284;59.124;37.910;2023-12-28T00:16:30;40.92;;;19.77;;
78895;SDS011;68284;59.124;37.910;2023-12-28T00:18:58;35.10;;;24.80;;
78895;SDS011;68284;59.124;37.910;2023-12-28T00:21:25;36.83;;;23.33;;
78895;SDS011;68284;59.124;37.910;2023-12-28T00:23:51;32.47;;;20.95;;
78895;SDS011;68284;59.124;37.910;2023-12-28T00:26:18;39.55;;;21.23;;
78895;SDS011;68284;59.124;37.910;2023-12-28T00:28:54;29.02;;;13.40;;
78895;SDS011;68284;59.124;37.910;2023-12-28T00:31:21;31.05;;;20.15;;
78895;SDS011;68284;59.124;37.910;2023-12-28T00:33:47;35.33;;;18.67;;
78895;SDS011;68284;59.124;37.910;2023-12-28T00:36:16;30.38;;;16.00;;
78895;SDS011;68284;59.124;37.910;2023-12-28T00:38:42;25.95;;;9.15;;
78895;SDS011;68284;59.124;37.910;2023-12-28T00:41:09;24.58;;;15.02;;
78895;SDS011;68284;59.124;37.910;2023-12-28T00:43:35;36.05;;;19.65;;
78895;SDS011;68284;59.124;37.910;2023-12-28T00:46:02;32.63;;;16.13;;
78895;SDS011;68284;59.124;37.910;2023-12-28T00:48:30;27.60;;;18.10;;
78895;SDS011;68284;59.124;37.910;2023-12-28T00:50:57;34.85;;;14.15;;
78895;SDS011;68284;59.124;37.910;2023-12-28T00:53:25;41.63;;;15.93;;
78895;SDS011;68284;59.124;37.910;2023-12-28T00:55:52;37.10;;;15.85;;
78895;SDS011;68284;59.124;37.910;2023-12-28T00:58:19;27.80;;;18.50;;
78895;SDS011;68284;59.124;37.910;2023-12-28T01:00:46;38.20;;;19.23;;
78895;SDS011;68284;59.124;37.910;2023-12-28T01:03:13;19.67;;;9.10;;
78895;SDS011;68284;59.124;37.910;2023-12-28T01:05:39;14.52;;;11.00;;
78895;SDS011;68284;59.124;37.910;2023-12-28T01:08:06;14.63;;;11.15;;
78895;SDS011;68284;59.124;37.910;2023-12-28T01:10:33;25.75;;;9.63;;
78895;SDS011;68284;59.124;37.910;2023-12-28T01:13:00;18.05;;;10.77;;
78895;SDS011;68284;59.124;37.910;2023-12-28T01:15:26;31.08;;;18.70;;
78895;SDS011;68284;59.124;37.910;2023-12-28T01:17:54;24.55;;;16.58;;
78895;SDS011;68284;59.124;37.910;2023-12-28T01:20:21;34.15;;;15.35;;
78895;SDS011;68284;59.124;37.910;2023-12-28T01:22:47;32.15;;;17.02;;
78895;SDS011;68284;59.124;37.910;2023-12-28T01:25:15;29.95;;;16.25;;
78895;SDS011;68284;59.124;37.910;2023-12-28T01:27:42;27.92;;;16.15;;
78895;SDS011;68284;59.124;37.910;2023-12-28T01:30:10;21.30;;;11.50;;
78895;SDS011;68284;59.124;37.910;2023-12-28T01:32:36;32.50;;;17.83;;
78895;SDS011;68284;59.124;37.910;2023-12-28T01:35:03;25.10;;;17.73;;
78895;SDS011;68284;59.124;37.910;2023-12-28T01:37:30;31.13;;;14.73;;
78895;SDS011;68284;59.124;37.910;2023-12-28T01:40:00;29.35;;;15.35;;
78895;SDS011;68284;59.124;37.910;2023-12-28T01:42:27;28.73;;;13.15;;
78895;SDS011;68284;59.124;37.910;2023-12-28T01:44:57;35.22;;;15.25;;
78895;SDS011;68284;59.124;37.910;2023-12-28T01:47:27;24.98;;;13.65;;
78895;SDS011;68284;59.124;37.910;2023-12-28T01:49:54;32.72;;;18.33;;
78895;SDS011;68284;59.124;37.910;2023-12-28T01:52:22;26.10;;;18.05;;
78895;SDS011;68284;59.124;37.910;2023-12-28T01:54:50;22.13;;;17.48;;
78895;SDS011;68284;59.124;37.910;2023-12-28T01:57:16;22.80;;;15.63;;
78895;SDS011;68284;59.124;37.910;2023-12-28T01:59:44;15.15;;;10.80;;
78895;SDS011;68284;59.124;37.910;2023-12-28T02:02:11;24.38;;;13.90;;
78895;SDS011;68284;59.124;37.910;2023-12-28T02:04:42;19.40;;;10.95;;
78895;SDS011;68284;59.124;37.910;2023-12-28T02:07:09;16.42;;;11.43;;
78895;SDS011;68284;59.124;37.910;2023-12-28T02:09:38;16.02;;;13.85;;
78895;SDS011;68284;59.124;37.910;2023-12-28T02:12:06;19.85;;;12.13;;
78895;SDS011;68284;59.124;37.910;2023-12-28T02:14:34;18.45;;;13.82;;
78895;SDS011;68284;59.124;37.910;2023-12-28T02:17:03;14.25;;;10.48;;
78895;SDS011;68284;59.124;37.910;2023-12-28T02:22:00;20.20;;;12.02;;
78895;SDS011;68284;59.124;37.910;2023-12-28T02:24:28;15.48;;;11.35;;
78895;SDS011;68284;59.124;37.910;2023-12-28T02:26:54;19.83;;;14.35;;
78895;SDS011;68284;59.124;37.910;2023-12-28T02:29:21;24.55;;;17.42;;
78895;SDS011;68284;59.124;37.910;2023-12-28T02:31:53;20.58;;;11.02;;
78895;SDS011;68284;59.124;37.910;2023-12-28T02:34:29;15.55;;;13.13;;
78895;SDS011;68284;59.124;37.910;2023-12-28T02:37:00;23.27;;;11.95;;
78895;SDS011;68284;59.124;37.910;2023-12-28T02:39:27;26.38;;;14.38;;
78895;SDS011;68284;59.124;37.910;2023-12-28T02:41:55;24.55;;;12.02;;
78895;SDS011;68284;59.124;37.910;2023-12-28T02:44:22;26.10;;;13.35;;
78895;SDS011;68284;59.124;37.910;2023-12-28T02:46:48;20.92;;;16.50;;
78895;SDS011;68284;59.124;37.910;2023-12-28T02:49:14;26.70;;;11.82;;
78895;SDS011;68284;59.124;37.910;2023-12-28T02:51:41;24.70;;;13.45;;
78895;SDS011;68284;59.124;37.910;2023-12-28T02:54:10;32.85;;;12.13;;
78895;SDS011;68284;59.124;37.910;2023-12-28T02:56:36;29.38;;;9.52;;
78895;SDS011;68284;59.124;37.910;2023-12-28T02:59:02;23.00;;;14.93;;
78895;SDS011;68284;59.124;37.910;2023-12-28T03:06:23;25.15;;;17.00;;
78895;SDS011;68284;59.124;37.910;2023-12-28T03:08:49;26.42;;;17.00;;
78895;SDS011;68284;59.124;37.910;2023-12-28T03:11:16;28.85;;;11.82;;
78895;SDS011;68284;59.124;37.910;2023-12-28T03:13:43;52.33;;;21.38;;
78895;SDS011;68284;59.124;37.910;2023-12-28T03:16:09;102.53;;;41.20;;
78895;SDS011;68284;59.124;37.910;2023-12-28T03:18:35;95.13;;;44.50;;
78895;SDS011;68284;59.124;37.910;2023-12-28T03:21:02;88.32;;;39.88;;
78895;SDS011;68284;59.124;37.910;2023-12-28T03:23:28;75.32;;;32.60;;
78895;SDS011;68284;59.124;37.910;2023-12-28T03:25:55;48.72;;;27.70;;
78895;SDS011;68284;59.124;37.910;2023-12-28T03:28:21;50.72;;;22.70;;
78895;SDS011;68284;59.124;37.910;2023-12-28T03:30:49;34.97;;;16.15;;
78895;SDS011;68284;59.124;37.910;2023-12-28T03:33:15;30.60;;;19.55;;
78895;SDS011;68284;59.124;37.910;2023-12-28T03:35:41;23.55;;;16.35;;
78895;SDS011;68284;59.124;37.910;2023-12-28T03:38:08;27.23;;;14.95;;
78895;SDS011;68284;59.124;37.910;2023-12-28T03:40:34;38.38;;;17.95;;
78895;SDS011;68284;59.124;37.910;2023-12-28T03:43:01;15.30;;;7.85;;
78895;SDS011;68284;59.124;37.910;2023-12-28T03:45:27;20.80;;;14.70;;
78895;SDS011;68284;59.124;37.910;2023-12-28T03:47:54;18.17;;;12.95;;
78895;SDS011;68284;59.124;37.910;2023-12-28T03:50:22;28.63;;;21.42;;
78895;SDS011;68284;59.124;37.910;2023-12-28T03:52:49;33.83;;;17.73;;
78895;SDS011;68284;59.124;37.910;2023-12-28T03:55:17;24.38;;;19.67;;
78895;SDS011;68284;59.124;37.910;2023-12-28T03:57:43;16.67;;;10.32;;
78895;SDS011;68284;59.124;37.910;2023-12-28T04:00:12;9.07;;;5.30;;
78895;SDS011;68284;59.124;37.910;2023-12-28T04:02:39;22.08;;;12.55;;
78895;SDS011;68284;59.124;37.910;2023-12-28T04:05:05;15.15;;;9.40;;
78895;SDS011;68284;59.124;37.910;2023-12-28T04:07:34;32.42;;;21.73;;
78895;SDS011;68284;59.124;37.910;2023-12-28T04:10:03;26.85;;;17.23;;
78895;SDS011;68284;59.124;37.910;2023-12-28T04:12:32;44.28;;;22.38;;
78895;SDS011;68284;59.124;37.910;2023-12-28T04:15:00;30.02;;;19.92;;
78895;SDS011;68284;59.124;37.910;2023-12-28T04:17:28;6.93;;;6.43;;
78895;SDS011;68284;59.124;37.910;2023-12-28T04:19:54;6.53;;;5.93;;
78895;SDS011;68284;59.124;37.910;2023-12-28T04:22:21;6.70;;;5.00;;
78895;SDS011;68284;59.124;37.910;2023-12-28T04:24:47;20.70;;;9.82;;
78895;SDS011;68284;59.124;37.910;2023-12-28T04:27:14;19.00;;;13.70;;
78895;SDS011;68284;59.124;37.910;2023-12-28T04:29:40;36.83;;;11.77;;
78895;SDS011;68284;59.124;37.910;2023-12-28T04:32:07;16.08;;;10.80;;
78895;SDS011;68284;59.124;37.910;2023-12-28T04:34:35;20.40;;;13.30;;
78895;SDS011;68284;59.124;37.910;2023-12-28T04:37:02;26.50;;;13.20;;
78895;SDS011;68284;59.124;37.910;2023-12-28T04:39:32;26.85;;;21.02;;
78895;SDS011;68284;59.124;37.910;2023-12-28T04:41:59;31.50;;;24.95;;
78895;SDS011;68284;59.124;37.910;2023-12-28T04:44:27;18.02;;;14.65;;
78895;SDS011;68284;59.124;37.910;2023-12-28T04:46:55;28.55;;;16.80;;
78895;SDS011;68284;59.124;37.910;2023-12-28T04:49:22;13.82;;;8.30;;
78895;SDS011;68284;59.124;37.910;2023-12-28T04:51:48;16.25;;;11.88;;
78895;SDS011;68284;59.124;37.910;2023-12-28T04:54:15;16.00;;;11.40;;
78895;SDS011;68284;59.124;37.910;2023-12-28T04:56:44;26.50;;;15.88;;
78895;SDS011;68284;59.124;37.910;2023-12-28T04:59:13;30.50;;;10.80;;
78895;SDS011;68284;59.124;37.910;2023-12-28T05:01:40;37.63;;;19.13;;
78895;SDS011;68284;59.124;37.910;2023-12-28T05:04:10;31.17;;;15.10;;
78895;SDS011;68284;59.124;37.910;2023-12-28T05:09:03;33.75;;;17.42;;
78895;SDS011;68284;59.124;37.910;2023-12-28T05:11:30;23.75;;;14.35;;
78895;SDS011;68284;59.124;37.910;2023-12-28T05:13:57;25.55;;;13.65;;
78895;SDS011;68284;59.124;37.910;2023-12-28T05:16:25;32.17;;;21.50;;
78895;SDS011;68284;59.124;37.910;2023-12-28T05:18:52;32.28;;;14.93;;
78895;SDS011;68284;59.124;37.910;2023-12-28T05:21:21;22.92;;;14.65;;
78895;SDS011;68284;59.124;37.910;2023-12-28T05:23:49;26.13;;;14.75;;
78895;SDS011;68284;59.124;37.910;2023-12-28T05:26:16;10.57;;;9.07;;
78895;SDS011;68284;59.124;37.910;2023-12-28T05:28:45;7.85;;;7.15;;
78895;SDS011;68284;59.124;37.910;2023-12-28T05:31:23;17.42;;;10.77;;
78895;SDS011;68284;59.124;37.910;2023-12-28T05:33:49;14.52;;;10.73;;
78895;SDS011;68284;59.124;37.910;2023-12-28T05:36:16;14.40;;;12.30;;
78895;SDS011;68284;59.124;37.910;2023-12-28T05:38:42;14.02;;;9.55;;
78895;SDS011;68284;59.124;37.910;2023-12-28T05:41:09;11.02;;;10.00;;
78895;SDS011;68284;59.124;37.910;2023-12-28T05:43:36;17.77;;;15.13;;
78895;SDS011;68284;59.124;37.910;2023-12-28T05:46:05;25.15;;;11.95;;
78895;SDS011;68284;59.124;37.910;2023-12-28T05:48:31;19.30;;;14.80;;
78895;SDS011;68284;59.124;37.910;2023-12-28T05:50:58;10.48;;;9.13;;
78895;SDS011;68284;59.124;37.910;2023-12-28T05:53:25;21.17;;;11.15;;
78895;SDS011;68284;59.124;37.910;2023-12-28T05:55:53;25.27;;;10.70;;
78895;SDS011;68284;59.124;37.910;2023-12-28T05:58:20;16.20;;;9.50;;
78895;SDS011;68284;59.124;37.910;2023-12-28T06:00:47;12.60;;;7.55;;
78895;SDS011;68284;59.124;37.910;2023-12-28T06:03:15;14.15;;;10.68;;
78895;SDS011;68284;59.124;37.910;2023-12-28T06:05:42;13.02;;;10.82;;
78895;SDS011;68284;59.124;37.910;2023-12-28T06:08:08;24.60;;;13.60;;
78895;SDS011;68284;59.124;37.910;2023-12-28T06:10:38;27.80;;;18.85;;
78895;SDS011;68284;59.124;37.910;2023-12-28T06:13:05;29.17;;;15.02;;
78895;SDS011;68284;59.124;37.910;2023-12-28T06:15:32;15.88;;;14.15;;
78895;SDS011;68284;59.124;37.910;2023-12-28T06:17:59;20.65;;;10.65;;
78895;SDS011;68284;59.124;37.910;2023-12-28T06:20:27;30.90;;;16.50;;
78895;SDS011;68284;59.124;37.910;2023-12-28T06:22:56;26.92;;;19.80;;
78895;SDS011;68284;59.124;37.910;2023-12-28T06:25:29;22.20;;;18.30;;
78895;SDS011;68284;59.124;37.910;2023-12-28T06:27:56;18.73;;;14.00;;
78895;SDS011;68284;59.124;37.910;2023-12-28T06:30:23;26.55;;;16.60;;
78895;SDS011;68284;59.124;37.910;2023-12-28T06:32:49;24.23;;;17.52;;
78895;SDS011;68284;59.124;37.910;2023-12-28T06:35:16;29.73;;;23.70;;
78895;SDS011;68284;59.124;37.910;2023-12-28T06:37:43;28.10;;;17.90;;
78895;SDS011;68284;59.124;37.910;2023-12-28T06:40:10;17.45;;;14.13;;
78895;SDS011;68284;59.124;37.910;2023-12-28T06:42:37;11.43;;;10.00;;
78895;SDS011;68284;59.124;37.910;2023-12-28T06:45:05;13.48;;;10.95;;
78895;SDS011;68284;59.124;37.910;2023-12-28T06:47:41;14.45;;;12.98;;
78895;SDS011;68284;59.124;37.910;2023-12-28T06:50:09;14.10;;;12.77;;
78895;SDS011;68284;59.124;37.910;2023-12-28T06:52:36;11.13;;;8.30;;
78895;SDS011;68284;59.124;37.910;2023-12-28T06:55:04;14.25;;;8.45;;
78895;SDS011;68284;59.124;37.910;2023-12-28T06:57:32;9.85;;;5.45;;
78895;SDS011;68284;59.124;37.910;2023-12-28T06:59:58;10.35;;;8.45;;
78895;SDS011;68284;59.124;37.910;2023-12-28T07:02:31;10.05;;;7.53;;
78895;SDS011;68284;59.124;37.910;2023-12-28T07:04:57;14.68;;;11.10;;
78895;SDS011;68284;59.124;37.910;2023-12-28T07:07:24;12.60;;;6.88;;
78895;SDS011;68284;59.124;37.910;2023-12-28T07:09:51;10.35;;;7.00;;
78895;SDS011;68284;59.124;37.910;2023-12-28T07:12:17;9.85;;;8.10;;
78895;SDS011;68284;59.124;37.910;2023-12-28T07:14:46;9.93;;;7.93;;
78895;SDS011;68284;59.124;37.910;2023-12-28T07:17:14;15.25;;;13.18;;
78895;SDS011;68284;59.124;37.910;2023-12-28T07:19:45;15.07;;;5.97;;
78895;SDS011;68284;59.124;37.910;2023-12-28T07:22:12;21.48;;;9.80;;
78895;SDS011;68284;59.124;37.910;2023-12-28T07:24:38;10.48;;;9.48;;
78895;SDS011;68284;59.124;37.910;2023-12-28T07:27:05;8.43;;;5.97;;
78895;SDS011;68284;59.124;37.910;2023-12-28T07:29:33;9.23;;;6.07;;
78895;SDS011;68284;59.124;37.910;2023-12-28T07:31:59;10.20;;;6.40;;
78895;SDS011;68284;59.124;37.910;2023-12-28T07:34:27;9.48;;;6.75;;
78895;SDS011;68284;59.124;37.910;2023-12-28T07:36:55;12.52;;;7.45;;
78895;SDS011;68284;59.124;37.910;2023-12-28T07:39:22;16.83;;;9.10;;
78895;SDS011;68284;59.124;37.910;2023-12-28T07:41:52;14.65;;;13.43;;
78895;SDS011;68284;59.124;37.910;2023-12-28T07:44:22;8.57;;;7.10;;
78895;SDS011;68284;59.124;37.910;2023-12-28T07:46:53;8.13;;;7.28;;
78895;SDS011;68284;59.124;37.910;2023-12-28T07:49:21;12.18;;;10.18;;
78895;SDS011;68284;59.124;37.910;2023-12-28T07:54:15;16.23;;;11.80;;
78895;SDS011;68284;59.124;37.910;2023-12-28T07:56:42;12.30;;;11.20;;
78895;SDS011;68284;59.124;37.910;2023-12-28T07:59:10;9.50;;;8.50;;
78895;SDS011;68284;59.124;37.910;2023-12-28T08:01:37;14.32;;;12.90;;
78895;SDS011;68284;59.124;37.910;2023-12-28T08:04:07;11.00;;;6.45;;
78895;SDS011;68284;59.124;37.910;2023-12-28T08:06:35;6.68;;;6.03;;
78895;SDS011;68284;59.124;37.910;2023-12-28T08:09:02;11.07;;;9.88;;
78895;SDS011;68284;59.124;37.910;2023-12-28T08:11:28;12.02;;;8.90;;
78895;SDS011;68284;59.124;37.910;2023-12-28T08:13:55;11.05;;;7.68;;
78895;SDS011;68284;59.124;37.910;2023-12-28T08:16:21;18.05;;;9.60;;
78895;SDS011;68284;59.124;37.910;2023-12-28T08:18:49;16.48;;;12.10;;
78895;SDS011;68284;59.124;37.910;2023-12-28T08:21:16;11.15;;;10.10;;
78895;SDS011;68284;59.124;37.910;2023-12-28T08:23:44;13.13;;;11.05;;
78895;SDS011;68284;59.124;37.910;2023-12-28T08:26:12;9.48;;;5.80;;
78895;SDS011;68284;59.124;37.910;2023-12-28T08:28:42;10.10;;;5.93;;
78895;SDS011;68284;59.124;37.910;2023-12-28T08:31:11;10.32;;;8.40;;
78895;SDS011;68284;59.124;37.910;2023-12-28T08:33:38;12.40;;;9.32;;
78895;SDS011;68284;59.124;37.910;2023-12-28T08:36:06;13.05;;;11.57;;
78895;SDS011;68284;59.124;37.910;2023-12-28T08:38:33;10.73;;;6.07;;
78895;SDS011;68284;59.124;37.910;2023-12-28T08:41:02;13.85;;;10.38;;
78895;SDS011;68284;59.124;37.910;2023-12-28T08:48:29;21.77;;;16.25;;
78895;SDS011;68284;59.124;37.910;2023-12-28T08:50:59;20.02;;;15.80;;
78895;SDS011;68284;59.124;37.910;2023-12-28T08:53:29;24.17;;;19.05;;
78895;SDS011;68284;59.124;37.910;2023-12-28T08:56:01;14.73;;;7.72;;
78895;SDS011;68284;59.124;37.910;2023-12-28T08:58:35;10.50;;;8.73;;
78895;SDS011;68284;59.124;37.910;2023-12-28T09:01:04;13.85;;;9.05;;
78895;SDS011;68284;59.124;37.910;2023-12-28T09:03:33;13.10;;;11.73;;
78895;SDS011;68284;59.124;37.910;2023-12-28T09:06:02;11.40;;;6.53;;
78895;SDS011;68284;59.124;37.910;2023-12-28T09:08:28;13.43;;;8.15;;
78895;SDS011;68284;59.124;37.910;2023-12-28T09:11:02;13.18;;;8.63;;
78895;SDS011;68284;59.124;37.910;2023-12-28T09:13:32;12.68;;;9.02;;
78895;SDS011;68284;59.124;37.910;2023-12-28T09:16:01;17.42;;;9.10;;
78895;SDS011;68284;59.124;37.910;2023-12-28T09:18:30;16.42;;;10.18;;
78895;SDS011;68284;59.124;37.910;2023-12-28T09:20:57;20.75;;;11.27;;
78895;SDS011;68284;59.124;37.910;2023-12-28T09:23:24;17.58;;;10.30;;
78895;SDS011;68284;59.124;37.910;2023-12-28T09:25:51;9.52;;;4.32;;
78895;SDS011;68284;59.124;37.910;2023-12-28T09:28:17;13.02;;;7.80;;
78895;SDS011;68284;59.124;37.910;2023-12-28T09:30:43;8.95;;;3.75;;
78895;SDS011;68284;59.124;37.910;2023-12-28T09:33:10;7.82;;;7.13;;
78895;SDS011;68284;59.124;37.910;2023-12-28T09:35:36;4.78;;;4.38;;
78895;SDS011;68284;59.124;37.910;2023-12-28T09:38:03;4.38;;;3.20;;
78895;SDS011;68284;59.124;37.910;2023-12-28T09:40:29;13.90;;;11.65;;
78895;SDS011;68284;59.124;37.910;2023-12-28T09:43:01;16.05;;;7.82;;
78895;SDS011;68284;59.124;37.910;2023-12-28T09:45:35;11.77;;;3.78;;
78895;SDS011;68284;59.124;37.910;2023-12-28T09:48:04;5.72;;;4.50;;
78895;SDS011;68284;59.124;37.910;2023-12-28T09:50:32;7.40;;;3.53;;
78895;SDS011;68284;59.124;37.910;2023-12-28T09:53:00;4.68;;;3.20;;
78895;SDS011;68284;59.124;37.910;2023-12-28T09:55:26;6.82;;;6.32;;
78895;SDS011;68284;59.124;37.910;2023-12-28T09:57:52;3.55;;;2.78;;
78895;SDS011;68284;59.124;37.910;2023-12-28T10:00:20;8.80;;;8.15;;
78895;SDS011;68284;59.124;37.910;2023-12-28T10:02:48;8.48;;;7.88;;
78895;SDS011;68284;59.124;37.910;2023-12-28T10:05:15;6.90;;;6.25;;
78895;SDS011;68284;59.124;37.910;2023-12-28T10:07:42;7.18;;;3.83;;
78895;SDS011;68284;59.124;37.910;2023-12-28T10:10:10;5.13;;;3.17;;
78895;SDS011;68284;59.124;37.910;2023-12-28T10:12:40;5.88;;;5.07;;
78895;SDS011;68284;59.124;37.910;2023-12-28T10:15:07;7.72;;;7.00;;
78895;SDS011;68284;59.124;37.910;2023-12-28T10:17:35;3.38;;;3.08;;
78895;SDS011;68284;59.124;37.910;2023-12-28T10:20:06;12.13;;;11.25;;
78895;SDS011;68284;59.124;37.910;2023-12-28T10:22:48;9.02;;;8.38;;
78895;SDS011;68284;59.124;37.910;2023-12-28T10:25:17;4.90;;;4.45;;
78895;SDS011;68284;59.124;37.910;2023-12-28T10:27:49;8.63;;;7.60;;
78895;SDS011;68284;59.124;37.910;2023-12-28T10:30:23;7.60;;;3.97;;
78895;SDS011;68284;59.124;37.910;2023-12-28T10:32:51;6.20;;;4.40;;
78895;SDS011;68284;59.124;37.910;2023-12-28T10:35:27;6.78;;;5.47;;
78895;SDS011;68284;59.124;37.910;2023-12-28T10:37:54;7.22;;;6.55;;
78895;SDS011;68284;59.124;37.910;2023-12-28T10:40:26;8.35;;;6.43;;
78895;SDS011;68284;59.124;37.910;2023-12-28T10:43:06;9.13;;;3.22;;
78895;SDS011;68284;59.124;37.910;2023-12-28T10:45:39;16.58;;;4.60;;
78895;SDS011;68284;59.124;37.910;2023-12-28T10:48:11;3.20;;;2.50;;
78895;SDS011;68284;59.124;37.910;2023-12-28T10:50:47;13.77;;;8.23;;
78895;SDS011;68284;59.124;37.910;2023-12-28T10:56:01;8.25;;;4.05;;
78895;SDS011;68284;59.124;37.910;2023-12-28T10:58:49;8.73;;;7.28;;
78895;SDS011;68284;59.124;37.910;2023-12-28T11:01:26;18.25;;;10.60;;
78895;SDS011;68284;59.124;37.910;2023-12-28T11:04:02;8.95;;;4.95;;
78895;SDS011;68284;59.124;37.910;2023-12-28T11:06:51;10.88;;;9.82;;
78895;SDS011;68284;59.124;37.910;2023-12-28T11:09:31;11.05;;;6.43;;
78895;SDS011;68284;59.124;37.910;2023-12-28T11:12:02;8.63;;;7.85;;
78895;SDS011;68284;59.124;37.910;2023-12-28T11:14:36;9.93;;;6.15;;
78895;SDS011;68284;59.124;37.910;2023-12-28T11:17:10;8.50;;;4.82;;
78895;SDS011;68284;59.124;37.910;2023-12-28T11:19:46;8.75;;;7.93;;
78895;SDS011;68284;59.124;37.910;2023-12-28T11:22:19;11.65;;;10.43;;
78895;SDS011;68284;59.124;37.910;2023-12-28T11:24:54;29.60;;;19.90;;
78895;SDS011;68284;59.124;37.910;2023-12-28T11:27:22;8.10;;;6.10;;
78895;SDS011;68284;59.124;37.910;2023-12-28T11:29:54;16.75;;;13.35;;
78895;SDS011;68284;59.124;37.910;2023-12-28T11:34:57;12.05;;;9.77;;
78895;SDS011;68284;59.124;37.910;2023-12-28T11:37:26;13.43;;;8.18;;
78895;SDS011;68284;59.124;37.910;2023-12-28T11:39:58;11.98;;;7.60;;
78895;SDS011;68284;59.124;37.910;2023-12-28T11:43:24;7.57;;;4.45;;
78895;SDS011;68284;59.124;37.910;2023-12-28T11:46:07;11.07;;;7.78;;
78895;SDS011;68284;59.124;37.910;2023-12-28T11:49:11;5.55;;;5.05;;
78895;SDS011;68284;59.124;37.910;2023-12-28T11:52:30;8.57;;;7.88;;
78895;SDS011;68284;59.124;37.910;2023-12-28T11:55:09;8.73;;;5.80;;
78895;SDS011;68284;59.124;37.910;2023-12-28T11:57:38;11.90;;;10.48;;
78895;SDS011;68284;59.124;37.910;2023-12-28T12:00:10;5.72;;;3.42;;
78895;SDS011;68284;59.124;37.910;2023-12-28T12:02:49;6.47;;;5.13;;
78895;SDS011;68284;59.124;37.910;2023-12-28T12:05:23;8.85;;;4.68;;
78895;SDS011;68284;59.124;37.910;2023-12-28T12:07:58;15.63;;;10.32;;
78895;SDS011;68284;59.124;37.910;2023-12-28T12:10:40;8.43;;;3.67;;
78895;SDS011;68284;59.124;37.910;2023-12-28T12:13:09;19.23;;;7.93;;
78895;SDS011;68284;59.124;37.910;2023-12-28T12:15:44;8.73;;;8.15;;
78895;SDS011;68284;59.124;37.910;2023-12-28T12:18:17;9.02;;;8.13;;
78895;SDS011;68284;59.124;37.910;2023-12-28T12:21:25;8.75;;;5.57;;
78895;SDS011;68284;59.124;37.910;2023-12-28T12:27:06;8.15;;;5.90;;
78895;SDS011;68284;59.124;37.910;2023-12-28T12:29:42;5.25;;;4.45;;
78895;SDS011;68284;59.124;37.910;2023-12-28T12:32:19;8.23;;;7.45;;
78895;SDS011;68284;59.124;37.910;2023-12-28T12:34:51;10.57;;;7.05;;
78895;SDS011;68284;59.124;37.910;2023-12-28T12:40:50;13.10;;;7.97;;
78895;SDS011;68284;59.124;37.910;2023-12-28T12:43:47;6.90;;;5.07;;
78895;SDS011;68284;59.124;37.910;2023-12-28T12:46:22;20.40;;;8.02;;
78895;SDS011;68284;59.124;37.910;2023-12-28T12:48:56;20.88;;;8.55;;
78895;SDS011;68284;59.124;37.910;2023-12-28T12:51:33;9.18;;;8.48;;
78895;SDS011;68284;59.124;37.910;2023-12-28T12:54:10;7.13;;;3.63;;
78895;SDS011;68284;59.124;37.910;2023-12-28T12:56:55;7.63;;;4.65;;
78895;SDS011;68284;59.124;37.910;2023-12-28T12:59:30;10.35;;;6.25;;
78895;SDS011;68284;59.124;37.910;2023-12-28T13:02:00;8.68;;;4.43;;
78895;SDS011;68284;59.124;37.910;2023-12-28T13:04:33;7.82;;;7.22;;
78895;SDS011;68284;59.124;37.910;2023-12-28T13:07:27;5.50;;;5.10;;
78895;SDS011;68284;59.124;37.910;2023-12-28T13:10:35;4.32;;;3.00;;
78895;SDS011;68284;59.124;37.910;2023-12-28T13:13:06;5.15;;;4.75;;
78895;SDS011;68284;59.124;37.910;2023-12-28T13:15:39;5.95;;;4.43;;
78895;SDS011;68284;59.124;37.910;2023-12-28T13:18:08;5.68;;;5.28;;
78895;SDS011;68284;59.124;37.910;2023-12-28T13:20:42;3.38;;;2.40;;
78895;SDS011;68284;59.124;37.910;2023-12-28T13:23:15;3.97;;;2.17;;
78895;SDS011;68284;59.124;37.910;2023-12-28T13:26:12;4.53;;;3.75;;
78895;SDS011;68284;59.124;37.910;2023-12-28T13:28:40;5.90;;;3.10;;
78895;SDS011;68284;59.124;37.910;2023-12-28T13:31:08;9.15;;;7.80;;
78895;SDS011;68284;59.124;37.910;2023-12-28T13:33:50;4.20;;;3.50;;
78895;SDS011;68284;59.124;37.910;2023-12-28T13:36:21;6.82;;;6.22;;
78895;SDS011;68284;59.124;37.910;2023-12-28T13:38:48;5.22;;;4.43;;
78895;SDS011;68284;59.124;37.910;2023-12-28T13:41:17;4.18;;;3.72;;
78895;SDS011;68284;59.124;37.910;2023-12-28T13:43:47;5.32;;;3.78;;
78895;SDS011;68284;59.124;37.910;2023-12-28T13:46:13;10.20;;;8.20;;
78895;SDS011;68284;59.124;37.910;2023-12-28T13:48:40;4.15;;;3.75;;
78895;SDS011;68284;59.124;37.910;2023-12-28T13:51:06;9.25;;;3.85;;
78895;SDS011;68284;59.124;37.910;2023-12-28T13:53:34;6.40;;;5.90;;
78895;SDS011;68284;59.124;37.910;2023-12-28T13:56:09;6.55;;;5.90;;
78895;SDS011;68284;59.124;37.910;2023-12-28T13:58:35;6.38;;;5.75;;
78895;SDS011;68284;59.124;37.910;2023-12-28T14:01:04;8.15;;;6.80;;
78895;SDS011;68284;59.124;37.910;2023-12-28T14:03:30;8.48;;;7.70;;
78895;SDS011;68284;59.124;37.910;2023-12-28T14:05:57;14.55;;;5.78;;
78895;SDS011;68284;59.124;37.910;2023-12-28T14:08:27;7.85;;;5.88;;
78895;SDS011;68284;59.124;37.910;2023-12-28T14:10:54;9.38;;;3.38;;
78895;SDS011;68284;59.124;37.910;2023-12-28T14:13:22;11.60;;;7.15;;
78895;SDS011;68284;59.124;37.910;2023-12-28T14:15:50;4.72;;;2.80;;
78895;SDS011;68284;59.124;37.910;2023-12-28T14:18:17;4.50;;;2.50;;
78895;SDS011;68284;59.124;37.910;2023-12-28T14:23:11;6.75;;;5.93;;
78895;SDS011;68284;59.124;37.910;2023-12-28T14:25:38;20.45;;;10.48;;
78895;SDS011;68284;59.124;37.910;2023-12-28T14:28:08;8.75;;;8.10;;
78895;SDS011;68284;59.124;37.910;2023-12-28T14:30:39;10.65;;;5.70;;
78895;SDS011;68284;59.124;37.910;2023-12-28T14:33:06;4.75;;;3.63;;
78895;SDS011;68284;59.124;37.910;2023-12-28T14:35:34;7.22;;;6.55;;
78895;SDS011;68284;59.124;37.910;2023-12-28T14:38:04;8.80;;;5.70;;
78895;SDS011;68284;59.124;37.910;2023-12-28T14:40:37;6.47;;;6.00;;
78895;SDS011;68284;59.124;37.910;2023-12-28T14:43:09;3.70;;;3.40;;
78895;SDS011;68284;59.124;37.910;2023-12-28T14:45:38;7.47;;;7.07;;
78895;SDS011;68284;59.124;37.910;2023-12-28T14:48:06;8.23;;;5.72;;
78895;SDS011;68284;59.124;37.910;2023-12-28T14:53:01;9.38;;;8.75;;
78895;SDS011;68284;59.124;37.910;2023-12-28T14:55:30;5.53;;;4.88;;
78895;SDS011;68284;59.124;37.910;2023-12-28T14:57:58;7.13;;;6.43;;
78895;SDS011;68284;59.124;37.910;2023-12-28T15:00:29;6.18;;;5.63;;
78895;SDS011;68284;59.124;37.910;2023-12-28T15:02:56;7.47;;;6.60;;
78895;SDS011;68284;59.124;37.910;2023-12-28T15:05:25;5.15;;;4.63;;
78895;SDS011;68284;59.124;37.910;2023-12-28T15:07:53;5.65;;;3.97;;